sensor_id;sensor_type;location;lat;lon;timestamp;P1;durP1;ratioP1;P2;durP2;ratioP2
54787;SDS011;59598;48.112;16.280;2024-02-26T00:00:27;7.85;;;2.85;;
54787;SDS011;59598;48.112;16.280;2024-02-26T00:03:02;7.05;;;3.33;;
54787;SDS011;59598;48.112;16.280;2024-02-26T00:05:33;9.88;;;3.55;;
54787;SDS011;59598;48.112;16.280;2024-02-26T00:08:08;5.80;;;3.28;;
54787;SDS011;59598;48.112;16.280;2024-02-26T00:10:39;7.15;;;3.25;;
54787;SDS011;59598;48.112;16.280;2024-02-26T00:13:13;7.38;;;3.03;;
54787;SDS011;59598;48.112;16.280;2024-02-26T00:15:45;6.35;;;3.22;;
54787;SDS011;59598;48.112;16.280;2024-02-26T00:18:16;5.68;;;2.85;;
54787;SDS011;59598;48.112;16.280;2024-02-26T00:20:48;6.97;;;3.35;;
54787;SDS011;59598;48.112;16.280;2024-02-26T00:23:19;7.43;;;3.35;;
54787;SDS011;59598;48.112;16.280;2024-02-26T00:25:50;6.68;;;4.07;;
54787;SDS011;59598;48.112;16.280;2024-02-26T00:28:21;5.68;;;3.38;;
54787;SDS011;59598;48.112;16.280;2024-02-26T00:30:53;8.85;;;3.40;;
54787;SDS011;59598;48.112;16.280;2024-02-26T00:35:59;5.45;;;3.33;;
54787;SDS011;59598;48.112;16.280;2024-02-26T00:38:32;7.13;;;3.15;;
54787;SDS011;59598;48.112;16.280;2024-02-26T00:41:06;8.55;;;3.65;;
54787;SDS011;59598;48.112;16.280;2024-02-26T00:43:40;8.95;;;3.60;;
54787;SDS011;59598;48.112;16.280;2024-02-26T00:46:13;7.70;;;3.33;;
54787;SDS011;59598;48.112;16.280;2024-02-26T00:48:44;6.60;;;3.22;;
54787;SDS011;59598;48.112;16.280;2024-02-26T00:51:17;5.53;;;3.03;;
54787;SDS011;59598;48.112;16.280;2024-02-26T00:53:51;6.95;;;3.67;;
54787;SDS011;59598;48.112;16.280;2024-02-26T00:56:24;6.28;;;3.50;;
54787;SDS011;59598;48.112;16.280;2024-02-26T00:58:58;5.18;;;3.35;;
54787;SDS011;59598;48.112;16.280;2024-02-26T01:01:29;6.93;;;3.40;;
54787;SDS011;59598;48.112;16.280;2024-02-26T01:04:06;5.55;;;3.70;;
54787;SDS011;59598;48.112;16.280;2024-02-26T01:06:39;5.57;;;3.85;;
54787;SDS011;59598;48.112;16.280;2024-02-26T01:09:15;8.60;;;4.10;;
54787;SDS011;59598;48.112;16.280;2024-02-26T01:11:48;6.40;;;3.80;;
54787;SDS011;59598;48.112;16.280;2024-02-26T01:14:19;7.28;;;3.35;;
54787;SDS011;59598;48.112;16.280;2024-02-26T01:16:53;7.53;;;3.67;;
54787;SDS011;59598;48.112;16.280;2024-02-26T01:19:24;6.65;;;3.85;;
54787;SDS011;59598;48.112;16.280;2024-02-26T01:21:55;6.30;;;3.53;;
54787;SDS011;59598;48.112;16.280;2024-02-26T01:24:29;7.35;;;3.90;;
54787;SDS011;59598;48.112;16.280;2024-02-26T01:27:00;4.68;;;3.50;;
54787;SDS011;59598;48.112;16.280;2024-02-26T01:29:44;4.33;;;3.30;;
54787;SDS011;59598;48.112;16.280;2024-02-26T01:32:16;8.00;;;3.50;;
54787;SDS011;59598;48.112;16.280;2024-02-26T01:34:52;6.45;;;3.15;;
54787;SDS011;59598;48.112;16.280;2024-02-26T01:37:29;7.55;;;3.60;;
54787;SDS011;59598;48.112;16.280;2024-02-26T01:40:00;6.47;;;3.38;;
54787;SDS011;59598;48.112;16.280;2024-02-26T01:42:34;5.35;;;3.42;;
54787;SDS011;59598;48.112;16.280;2024-02-26T01:45:06;8.73;;;3.40;;
54787;SDS011;59598;48.112;16.280;2024-02-26T01:47:46;6.22;;;2.92;;
54787;SDS011;59598;48.112;16.280;2024-02-26T01:50:19;7.32;;;3.20;;
54787;SDS011;59598;48.112;16.280;2024-02-26T01:52:55;6.70;;;3.30;;
54787;SDS011;59598;48.112;16.280;2024-02-26T01:55:30;6.40;;;3.10;;
54787;SDS011;59598;48.112;16.280;2024-02-26T01:58:04;3.35;;;2.70;;
54787;SDS011;59598;48.112;16.280;2024-02-26T02:00:38;5.57;;;3.13;;
54787;SDS011;59598;48.112;16.280;2024-02-26T02:03:12;6.72;;;3.80;;
54787;SDS011;59598;48.112;16.280;2024-02-26T02:05:44;7.85;;;3.70;;
54787;SDS011;59598;48.112;16.280;2024-02-26T02:08:15;5.68;;;3.35;;
54787;SDS011;59598;48.112;16.280;2024-02-26T02:10:47;7.40;;;3.35;;
54787;SDS011;59598;48.112;16.280;2024-02-26T02:13:21;5.35;;;3.03;;
54787;SDS011;59598;48.112;16.280;2024-02-26T02:15:55;9.18;;;3.47;;
54787;SDS011;59598;48.112;16.280;2024-02-26T02:18:26;3.92;;;3.03;;
54787;SDS011;59598;48.112;16.280;2024-02-26T02:21:00;4.80;;;3.25;;
54787;SDS011;59598;48.112;16.280;2024-02-26T02:23:31;6.97;;;3.47;;
54787;SDS011;59598;48.112;16.280;2024-02-26T02:26:06;4.10;;;3.00;;
54787;SDS011;59598;48.112;16.280;2024-02-26T02:28:42;7.90;;;3.25;;
54787;SDS011;59598;48.112;16.280;2024-02-26T02:31:15;7.00;;;3.17;;
54787;SDS011;59598;48.112;16.280;2024-02-26T02:33:50;7.03;;;3.35;;
54787;SDS011;59598;48.112;16.280;2024-02-26T02:36:21;4.72;;;2.72;;
54787;SDS011;59598;48.112;16.280;2024-02-26T02:38:57;7.38;;;3.58;;
54787;SDS011;59598;48.112;16.280;2024-02-26T02:41:29;5.15;;;3.20;;
54787;SDS011;59598;48.112;16.280;2024-02-26T02:44:00;7.28;;;3.25;;
54787;SDS011;59598;48.112;16.280;2024-02-26T02:46:34;4.32;;;2.70;;
54787;SDS011;59598;48.112;16.280;2024-02-26T02:49:09;6.80;;;2.60;;
54787;SDS011;59598;48.112;16.280;2024-02-26T02:51:41;3.63;;;2.47;;
54787;SDS011;59598;48.112;16.280;2024-02-26T02:54:14;4.90;;;3.00;;
54787;SDS011;59598;48.112;16.280;2024-02-26T02:56:46;6.55;;;2.90;;
54787;SDS011;59598;48.112;16.280;2024-02-26T02:59:17;3.85;;;2.78;;
54787;SDS011;59598;48.112;16.280;2024-02-26T03:02:00;5.05;;;3.30;;
54787;SDS011;59598;48.112;16.280;2024-02-26T03:04:37;5.82;;;3.30;;
54787;SDS011;59598;48.112;16.280;2024-02-26T03:07:13;6.03;;;2.95;;
54787;SDS011;59598;48.112;16.280;2024-02-26T03:09:47;3.13;;;2.58;;
54787;SDS011;59598;48.112;16.280;2024-02-26T03:12:21;5.13;;;2.90;;
54787;SDS011;59598;48.112;16.280;2024-02-26T03:14:52;5.47;;;2.95;;
54787;SDS011;59598;48.112;16.280;2024-02-26T03:17:24;3.92;;;2.55;;
54787;SDS011;59598;48.112;16.280;2024-02-26T03:19:58;5.32;;;2.95;;
54787;SDS011;59598;48.112;16.280;2024-02-26T03:22:34;4.30;;;2.70;;
54787;SDS011;59598;48.112;16.280;2024-02-26T03:25:08;4.82;;;3.00;;
54787;SDS011;59598;48.112;16.280;2024-02-26T03:27:39;6.75;;;2.88;;
54787;SDS011;59598;48.112;16.280;2024-02-26T03:30:10;4.50;;;2.63;;
54787;SDS011;59598;48.112;16.280;2024-02-26T03:35:17;9.80;;;3.15;;
54787;SDS011;59598;48.112;16.280;2024-02-26T03:37:51;3.78;;;2.80;;
54787;SDS011;59598;48.112;16.280;2024-02-26T03:40:24;4.93;;;2.60;;
54787;SDS011;59598;48.112;16.280;2024-02-26T03:42:57;4.68;;;2.85;;
54787;SDS011;59598;48.112;16.280;2024-02-26T03:45:31;7.35;;;3.33;;
54787;SDS011;59598;48.112;16.280;2024-02-26T03:48:07;8.75;;;2.53;;
54787;SDS011;59598;48.112;16.280;2024-02-26T03:50:41;4.60;;;2.50;;
54787;SDS011;59598;48.112;16.280;2024-02-26T03:53:29;4.60;;;2.33;;
54787;SDS011;59598;48.112;16.280;2024-02-26T03:56:04;6.03;;;2.60;;
54787;SDS011;59598;48.112;16.280;2024-02-26T03:58:40;4.28;;;2.22;;
54787;SDS011;59598;48.112;16.280;2024-02-26T04:01:12;4.40;;;2.60;;
54787;SDS011;59598;48.112;16.280;2024-02-26T04:03:49;4.78;;;2.55;;
54787;SDS011;59598;48.112;16.280;2024-02-26T04:06:20;8.80;;;2.72;;
54787;SDS011;59598;48.112;16.280;2024-02-26T04:08:53;6.25;;;2.83;;
54787;SDS011;59598;48.112;16.280;2024-02-26T04:11:27;4.82;;;2.47;;
54787;SDS011;59598;48.112;16.280;2024-02-26T04:14:00;4.33;;;3.00;;
54787;SDS011;59598;48.112;16.280;2024-02-26T04:16:34;3.45;;;2.50;;
54787;SDS011;59598;48.112;16.280;2024-02-26T04:21:40;4.57;;;3.13;;
54787;SDS011;59598;48.112;16.280;2024-02-26T04:24:12;6.65;;;3.00;;
54787;SDS011;59598;48.112;16.280;2024-02-26T04:26:43;6.13;;;3.03;;
54787;SDS011;59598;48.112;16.280;2024-02-26T04:29:14;4.43;;;2.80;;
54787;SDS011;59598;48.112;16.280;2024-02-26T04:31:48;5.53;;;3.33;;
54787;SDS011;59598;48.112;16.280;2024-02-26T04:34:20;7.03;;;3.40;;
54787;SDS011;59598;48.112;16.280;2024-02-26T04:36:54;4.40;;;2.97;;
54787;SDS011;59598;48.112;16.280;2024-02-26T04:39:27;2.97;;;2.58;;
54787;SDS011;59598;48.112;16.280;2024-02-26T04:41:58;3.78;;;2.67;;
54787;SDS011;59598;48.112;16.280;2024-02-26T04:44:34;6.30;;;3.03;;
54787;SDS011;59598;48.112;16.280;2024-02-26T04:47:05;5.10;;;2.90;;
54787;SDS011;59598;48.112;16.280;2024-02-26T04:49:39;5.85;;;3.33;;
54787;SDS011;59598;48.112;16.280;2024-02-26T04:52:11;7.03;;;3.70;;
54787;SDS011;59598;48.112;16.280;2024-02-26T04:54:42;6.53;;;3.80;;
54787;SDS011;59598;48.112;16.280;2024-02-26T04:57:13;5.45;;;3.60;;
54787;SDS011;59598;48.112;16.280;2024-02-26T04:59:44;5.90;;;3.72;;
54787;SDS011;59598;48.112;16.280;2024-02-26T05:02:21;8.38;;;3.72;;
54787;SDS011;59598;48.112;16.280;2024-02-26T05:04:57;6.72;;;3.90;;
54787;SDS011;59598;48.112;16.280;2024-02-26T05:07:28;3.80;;;2.93;;
54787;SDS011;59598;48.112;16.280;2024-02-26T05:10:00;8.07;;;2.75;;
54787;SDS011;59598;48.112;16.280;2024-02-26T05:12:33;5.25;;;3.00;;
54787;SDS011;59598;48.112;16.280;2024-02-26T05:15:06;7.85;;;3.30;;
54787;SDS011;59598;48.112;16.280;2024-02-26T05:17:41;5.10;;;3.33;;
54787;SDS011;59598;48.112;16.280;2024-02-26T05:20:19;3.42;;;2.80;;
54787;SDS011;59598;48.112;16.280;2024-02-26T05:22:57;5.97;;;3.28;;
54787;SDS011;59598;48.112;16.280;2024-02-26T05:25:32;6.85;;;3.10;;
54787;SDS011;59598;48.112;16.280;2024-02-26T05:28:04;7.95;;;3.25;;
54787;SDS011;59598;48.112;16.280;2024-02-26T05:30:38;5.38;;;3.55;;
54787;SDS011;59598;48.112;16.280;2024-02-26T05:33:11;5.15;;;3.08;;
54787;SDS011;59598;48.112;16.280;2024-02-26T05:35:45;6.55;;;3.58;;
54787;SDS011;59598;48.112;16.280;2024-02-26T05:38:16;7.47;;;3.28;;
54787;SDS011;59598;48.112;16.280;2024-02-26T05:40:48;7.53;;;3.45;;
54787;SDS011;59598;48.112;16.280;2024-02-26T05:43:23;5.43;;;2.70;;
54787;SDS011;59598;48.112;16.280;2024-02-26T05:45:56;5.65;;;3.80;;
54787;SDS011;59598;48.112;16.280;2024-02-26T05:48:27;9.95;;;3.58;;
54787;SDS011;59598;48.112;16.280;2024-02-26T05:51:01;4.72;;;2.90;;
54787;SDS011;59598;48.112;16.280;2024-02-26T05:53:40;5.90;;;3.10;;
54787;SDS011;59598;48.112;16.280;2024-02-26T05:56:14;5.38;;;3.28;;
54787;SDS011;59598;48.112;16.280;2024-02-26T05:58:48;5.35;;;3.75;;
54787;SDS011;59598;48.112;16.280;2024-02-26T06:01:19;6.00;;;3.67;;
54787;SDS011;59598;48.112;16.280;2024-02-26T06:03:51;6.22;;;3.65;;
54787;SDS011;59598;48.112;16.280;2024-02-26T06:06:25;7.60;;;3.90;;
54787;SDS011;59598;48.112;16.280;2024-02-26T06:09:00;8.20;;;4.35;;
54787;SDS011;59598;48.112;16.280;2024-02-26T06:11:37;7.03;;;4.18;;
54787;SDS011;59598;48.112;16.280;2024-02-26T06:14:08;7.13;;;4.03;;
54787;SDS011;59598;48.112;16.280;2024-02-26T06:16:40;7.18;;;4.18;;
54787;SDS011;59598;48.112;16.280;2024-02-26T06:19:12;9.25;;;4.15;;
54787;SDS011;59598;48.112;16.280;2024-02-26T06:21:45;7.68;;;4.30;;
54787;SDS011;59598;48.112;16.280;2024-02-26T06:24:19;10.55;;;4.63;;
54787;SDS011;59598;48.112;16.280;2024-02-26T06:26:51;8.68;;;4.50;;
54787;SDS011;59598;48.112;16.280;2024-02-26T06:29:22;6.05;;;4.05;;
54787;SDS011;59598;48.112;16.280;2024-02-26T06:31:54;9.07;;;3.83;;
54787;SDS011;59598;48.112;16.280;2024-02-26T06:34:26;6.40;;;3.80;;
54787;SDS011;59598;48.112;16.280;2024-02-26T06:37:02;8.57;;;3.70;;
54787;SDS011;59598;48.112;16.280;2024-02-26T06:39:34;7.15;;;4.63;;
54787;SDS011;59598;48.112;16.280;2024-02-26T06:42:11;6.53;;;4.15;;
54787;SDS011;59598;48.112;16.280;2024-02-26T06:44:46;7.20;;;4.72;;
54787;SDS011;59598;48.112;16.280;2024-02-26T06:47:19;9.05;;;4.68;;
54787;SDS011;59598;48.112;16.280;2024-02-26T06:49:51;9.20;;;4.20;;
54787;SDS011;59598;48.112;16.280;2024-02-26T06:52:24;6.88;;;4.00;;
54787;SDS011;59598;48.112;16.280;2024-02-26T06:54:58;8.55;;;4.15;;
54787;SDS011;59598;48.112;16.280;2024-02-26T06:57:29;6.57;;;3.80;;
54787;SDS011;59598;48.112;16.280;2024-02-26T07:00:06;7.32;;;4.18;;
54787;SDS011;59598;48.112;16.280;2024-02-26T07:02:38;8.63;;;3.95;;
54787;SDS011;59598;48.112;16.280;2024-02-26T07:05:09;7.50;;;4.47;;
54787;SDS011;59598;48.112;16.280;2024-02-26T07:07:40;7.82;;;4.28;;
54787;SDS011;59598;48.112;16.280;2024-02-26T07:10:14;6.50;;;4.00;;
54787;SDS011;59598;48.112;16.280;2024-02-26T07:12:48;6.28;;;3.72;;
54787;SDS011;59598;48.112;16.280;2024-02-26T07:15:22;7.50;;;3.95;;
54787;SDS011;59598;48.112;16.280;2024-02-26T07:17:55;6.47;;;4.18;;
54787;SDS011;59598;48.112;16.280;2024-02-26T07:20:27;9.93;;;4.47;;
54787;SDS011;59598;48.112;16.280;2024-02-26T07:22:58;5.78;;;3.90;;
54787;SDS011;59598;48.112;16.280;2024-02-26T07:25:29;6.88;;;3.78;;
54787;SDS011;59598;48.112;16.280;2024-02-26T07:28:01;6.13;;;3.78;;
54787;SDS011;59598;48.112;16.280;2024-02-26T07:30:32;7.15;;;4.22;;
54787;SDS011;59598;48.112;16.280;2024-02-26T07:33:03;7.28;;;4.60;;
54787;SDS011;59598;48.112;16.280;2024-02-26T07:35:34;7.28;;;4.18;;
54787;SDS011;59598;48.112;16.280;2024-02-26T07:38:07;5.93;;;4.30;;
54787;SDS011;59598;48.112;16.280;2024-02-26T07:40:38;6.85;;;4.75;;
54787;SDS011;59598;48.112;16.280;2024-02-26T07:43:09;7.35;;;3.85;;
54787;SDS011;59598;48.112;16.280;2024-02-26T07:45:43;8.55;;;5.00;;
54787;SDS011;59598;48.112;16.280;2024-02-26T07:48:14;7.20;;;4.75;;
54787;SDS011;59598;48.112;16.280;2024-02-26T07:50:46;9.27;;;4.50;;
54787;SDS011;59598;48.112;16.280;2024-02-26T07:53:19;11.07;;;4.68;;
54787;SDS011;59598;48.112;16.280;2024-02-26T07:55:53;8.13;;;4.32;;
54787;SDS011;59598;48.112;16.280;2024-02-26T07:58:24;276.33;;;165.13;;
54787;SDS011;59598;48.112;16.280;2024-02-26T08:00:55;1638.78;;;666.28;;
54787;SDS011;59598;48.112;16.280;2024-02-26T08:03:29;244.03;;;191.23;;
54787;SDS011;59598;48.112;16.280;2024-02-26T08:06:00;20.10;;;17.98;;
54787;SDS011;59598;48.112;16.280;2024-02-26T08:08:32;1999.90;;;846.75;;
54787;SDS011;59598;48.112;16.280;2024-02-26T08:11:05;121.47;;;71.00;;
54787;SDS011;59598;48.112;16.280;2024-02-26T08:13:36;1029.70;;;305.75;;
54787;SDS011;59598;48.112;16.280;2024-02-26T08:16:08;1988.82;;;791.05;;
54787;SDS011;59598;48.112;16.280;2024-02-26T08:18:39;1999.90;;;922.65;;
54787;SDS011;59598;48.112;16.280;2024-02-26T08:21:10;1534.65;;;875.22;;
54787;SDS011;59598;48.112;16.280;2024-02-26T08:23:43;123.63;;;95.53;;
54787;SDS011;59598;48.112;16.280;2024-02-26T08:26:14;39.03;;;34.85;;
54787;SDS011;59598;48.112;16.280;2024-02-26T08:28:48;13.88;;;12.35;;
54787;SDS011;59598;48.112;16.280;2024-02-26T08:31:21;11.38;;;8.52;;
54787;SDS011;59598;48.112;16.280;2024-02-26T08:33:54;10.18;;;7.28;;
54787;SDS011;59598;48.112;16.280;2024-02-26T08:36:29;20.77;;;18.73;;
54787;SDS011;59598;48.112;16.280;2024-02-26T08:39:04;6.45;;;5.40;;
54787;SDS011;59598;48.112;16.280;2024-02-26T08:41:35;60.60;;;55.10;;
54787;SDS011;59598;48.112;16.280;2024-02-26T08:44:13;98.28;;;73.72;;
54787;SDS011;59598;48.112;16.280;2024-02-26T08:46:46;402.35;;;275.45;;
54787;SDS011;59598;48.112;16.280;2024-02-26T08:49:24;1142.38;;;592.97;;
54787;SDS011;59598;48.112;16.280;2024-02-26T08:51:56;204.38;;;151.52;;
54787;SDS011;59598;48.112;16.280;2024-02-26T08:54:30;517.88;;;385.40;;
54787;SDS011;59598;48.112;16.280;2024-02-26T08:57:03;552.45;;;409.55;;
54787;SDS011;59598;48.112;16.280;2024-02-26T08:59:34;180.90;;;140.20;;
54787;SDS011;59598;48.112;16.280;2024-02-26T09:02:11;871.00;;;633.35;;
54787;SDS011;59598;48.112;16.280;2024-02-26T09:04:45;342.48;;;264.48;;
54787;SDS011;59598;48.112;16.280;2024-02-26T09:07:16;101.93;;;91.78;;
54787;SDS011;59598;48.112;16.280;2024-02-26T09:09:50;262.75;;;238.07;;
54787;SDS011;59598;48.112;16.280;2024-02-26T09:12:24;13.77;;;12.25;;
54787;SDS011;59598;48.112;16.280;2024-02-26T09:14:58;29.15;;;26.33;;
54787;SDS011;59598;48.112;16.280;2024-02-26T09:17:30;53.92;;;49.47;;
54787;SDS011;59598;48.112;16.280;2024-02-26T09:20:01;8.90;;;8.15;;
54787;SDS011;59598;48.112;16.280;2024-02-26T09:22:33;44.30;;;40.17;;
54787;SDS011;59598;48.112;16.280;2024-02-26T09:25:07;8.07;;;5.32;;
54787;SDS011;59598;48.112;16.280;2024-02-26T09:27:39;9.35;;;8.48;;
54787;SDS011;59598;48.112;16.280;2024-02-26T09:30:10;9.10;;;8.38;;
54787;SDS011;59598;48.112;16.280;2024-02-26T09:32:45;13.70;;;12.35;;
54787;SDS011;59598;48.112;16.280;2024-02-26T09:35:18;3.70;;;3.38;;
54787;SDS011;59598;48.112;16.280;2024-02-26T09:37:52;6.40;;;4.95;;
54787;SDS011;59598;48.112;16.280;2024-02-26T09:40:24;6.90;;;3.83;;
54787;SDS011;59598;48.112;16.280;2024-02-26T09:42:59;6.32;;;3.17;;
54787;SDS011;59598;48.112;16.280;2024-02-26T09:45:32;3.85;;;2.58;;
54787;SDS011;59598;48.112;16.280;2024-02-26T09:48:08;3.53;;;2.33;;
54787;SDS011;59598;48.112;16.280;2024-02-26T09:50:41;4.18;;;3.38;;
54787;SDS011;59598;48.112;16.280;2024-02-26T09:53:14;4.18;;;2.20;;
54787;SDS011;59598;48.112;16.280;2024-02-26T09:55:48;7.15;;;3.33;;
54787;SDS011;59598;48.112;16.280;2024-02-26T09:58:19;3.45;;;2.13;;
54787;SDS011;59598;48.112;16.280;2024-02-26T10:00:57;3.13;;;2.83;;
54787;SDS011;59598;48.112;16.280;2024-02-26T10:03:38;15.13;;;13.75;;
54787;SDS011;59598;48.112;16.280;2024-02-26T10:06:15;9.43;;;8.50;;
54787;SDS011;59598;48.112;16.280;2024-02-26T10:08:46;6.10;;;5.55;;
54787;SDS011;59598;48.112;16.280;2024-02-26T10:11:18;7.97;;;7.28;;
54787;SDS011;59598;48.112;16.280;2024-02-26T10:13:51;10.20;;;9.25;;
54787;SDS011;59598;48.112;16.280;2024-02-26T10:16:22;17.23;;;15.90;;
54787;SDS011;59598;48.112;16.280;2024-02-26T10:21:27;9.82;;;8.93;;
54787;SDS011;59598;48.112;16.280;2024-02-26T10:23:59;4.50;;;4.10;;
54787;SDS011;59598;48.112;16.280;2024-02-26T10:26:30;13.88;;;12.25;;
54787;SDS011;59598;48.112;16.280;2024-02-26T10:29:01;8.82;;;6.97;;
54787;SDS011;59598;48.112;16.280;2024-02-26T10:31:34;4.25;;;3.85;;
54787;SDS011;59598;48.112;16.280;2024-02-26T10:34:06;5.00;;;2.72;;
54787;SDS011;59598;48.112;16.280;2024-02-26T10:36:37;4.50;;;2.03;;
54787;SDS011;59598;48.112;16.280;2024-02-26T10:39:12;4.13;;;2.45;;
54787;SDS011;59598;48.112;16.280;2024-02-26T10:41:46;4.70;;;1.90;;
54787;SDS011;59598;48.112;16.280;2024-02-26T10:44:17;4.25;;;1.83;;
54787;SDS011;59598;48.112;16.280;2024-02-26T10:46:49;3.25;;;1.75;;
54787;SDS011;59598;48.112;16.280;2024-02-26T10:49:24;5.03;;;2.15;;
54787;SDS011;59598;48.112;16.280;2024-02-26T10:51:56;2.22;;;2.03;;
54787;SDS011;59598;48.112;16.280;2024-02-26T10:54:30;2.97;;;1.90;;
54787;SDS011;59598;48.112;16.280;2024-02-26T10:57:06;2.65;;;1.83;;
54787;SDS011;59598;48.112;16.280;2024-02-26T10:59:43;2.38;;;1.80;;
54787;SDS011;59598;48.112;16.280;2024-02-26T11:02:17;1.80;;;1.60;;
54787;SDS011;59598;48.112;16.280;2024-02-26T11:04:51;2.15;;;1.95;;
54787;SDS011;59598;48.112;16.280;2024-02-26T11:07:22;4.18;;;1.65;;
54787;SDS011;59598;48.112;16.280;2024-02-26T11:09:54;2.33;;;1.60;;
54787;SDS011;59598;48.112;16.280;2024-02-26T11:12:27;1.65;;;1.50;;
54787;SDS011;59598;48.112;16.280;2024-02-26T11:15:07;3.33;;;1.42;;
54787;SDS011;59598;48.112;16.280;2024-02-26T11:17:43;2.72;;;1.65;;
54787;SDS011;59598;48.112;16.280;2024-02-26T11:20:16;2.60;;;1.60;;
54787;SDS011;59598;48.112;16.280;2024-02-26T11:22:49;3.20;;;1.80;;
54787;SDS011;59598;48.112;16.280;2024-02-26T11:25:26;2.42;;;1.70;;
54787;SDS011;59598;48.112;16.280;2024-02-26T11:28:01;1.60;;;1.50;;
54787;SDS011;59598;48.112;16.280;2024-02-26T11:30:36;2.60;;;1.60;;
54787;SDS011;59598;48.112;16.280;2024-02-26T11:33:11;2.78;;;1.77;;
54787;SDS011;59598;48.112;16.280;2024-02-26T11:35:44;1.50;;;1.40;;
54787;SDS011;59598;48.112;16.280;2024-02-26T11:38:20;2.05;;;1.52;;
54787;SDS011;59598;48.112;16.280;2024-02-26T11:40:55;1.90;;;1.40;;
54787;SDS011;59598;48.112;16.280;2024-02-26T11:44:20;2.05;;;1.85;;
54787;SDS011;59598;48.112;16.280;2024-02-26T11:46:42;1.85;;;1.63;;
54787;SDS011;59598;48.112;16.280;2024-02-26T11:51:57;1.70;;;1.60;;
54787;SDS011;59598;48.112;16.280;2024-02-26T11:54:50;1.95;;;1.50;;
54787;SDS011;59598;48.112;16.280;2024-02-26T11:57:29;2.03;;;1.60;;
54787;SDS011;59598;48.112;16.280;2024-02-26T12:05:20;4.80;;;1.70;;
54787;SDS011;59598;48.112;16.280;2024-02-26T12:07:55;3.67;;;3.15;;
54787;SDS011;59598;48.112;16.280;2024-02-26T12:10:31;7.63;;;5.47;;
54787;SDS011;59598;48.112;16.280;2024-02-26T12:13:07;7.30;;;5.45;;
54787;SDS011;59598;48.112;16.280;2024-02-26T12:18:22;6.70;;;5.28;;
54787;SDS011;59598;48.112;16.280;2024-02-26T12:21:03;6.32;;;4.15;;
54787;SDS011;59598;48.112;16.280;2024-02-26T12:23:35;6.85;;;4.40;;
54787;SDS011;59598;48.112;16.280;2024-02-26T12:26:06;5.47;;;3.30;;
54787;SDS011;59598;48.112;16.280;2024-02-26T12:28:38;4.55;;;3.45;;
54787;SDS011;59598;48.112;16.280;2024-02-26T12:31:19;4.05;;;3.17;;
54787;SDS011;59598;48.112;16.280;2024-02-26T12:33:53;3.15;;;2.38;;
54787;SDS011;59598;48.112;16.280;2024-02-26T12:36:27;3.03;;;2.35;;
54787;SDS011;59598;48.112;16.280;2024-02-26T12:38:59;6.45;;;4.72;;
54787;SDS011;59598;48.112;16.280;2024-02-26T12:41:33;7.95;;;5.55;;
54787;SDS011;59598;48.112;16.280;2024-02-26T12:46:38;2.97;;;2.63;;
54787;SDS011;59598;48.112;16.280;2024-02-26T12:49:18;2.67;;;1.90;;
54787;SDS011;59598;48.112;16.280;2024-02-26T12:51:51;3.63;;;1.80;;
54787;SDS011;59598;48.112;16.280;2024-02-26T12:54:31;4.97;;;2.88;;
54787;SDS011;59598;48.112;16.280;2024-02-26T12:57:05;5.97;;;4.18;;
54787;SDS011;59598;48.112;16.280;2024-02-26T12:59:40;13.30;;;9.23;;
54787;SDS011;59598;48.112;16.280;2024-02-26T13:02:11;17.50;;;12.25;;
54787;SDS011;59598;48.112;16.280;2024-02-26T13:04:43;22.88;;;15.32;;
54787;SDS011;59598;48.112;16.280;2024-02-26T13:07:17;13.73;;;11.50;;
54787;SDS011;59598;48.112;16.280;2024-02-26T13:09:48;12.73;;;10.00;;
54787;SDS011;59598;48.112;16.280;2024-02-26T13:12:22;6.47;;;5.20;;
54787;SDS011;59598;48.112;16.280;2024-02-26T13:15:00;4.10;;;3.28;;
54787;SDS011;59598;48.112;16.280;2024-02-26T13:17:32;4.00;;;3.10;;
54787;SDS011;59598;48.112;16.280;2024-02-26T13:20:04;2.33;;;2.13;;
54787;SDS011;59598;48.112;16.280;2024-02-26T13:22:36;2.80;;;1.98;;
54787;SDS011;59598;48.112;16.280;2024-02-26T13:25:08;2.53;;;1.83;;
54787;SDS011;59598;48.112;16.280;2024-02-26T13:27:42;3.55;;;2.50;;
54787;SDS011;59598;48.112;16.280;2024-02-26T13:30:13;4.78;;;2.92;;
54787;SDS011;59598;48.112;16.280;2024-02-26T13:32:44;8.23;;;2.50;;
54787;SDS011;59598;48.112;16.280;2024-02-26T13:35:17;4.93;;;2.50;;
54787;SDS011;59598;48.112;16.280;2024-02-26T13:37:51;3.70;;;1.98;;
54787;SDS011;59598;48.112;16.280;2024-02-26T13:40:25;3.55;;;1.95;;
54787;SDS011;59598;48.112;16.280;2024-02-26T13:42:58;2.45;;;2.22;;
54787;SDS011;59598;48.112;16.280;2024-02-26T13:45:36;3.00;;;2.35;;
54787;SDS011;59598;48.112;16.280;2024-02-26T13:48:14;3.08;;;2.60;;
54787;SDS011;59598;48.112;16.280;2024-02-26T13:50:48;3.35;;;2.28;;
54787;SDS011;59598;48.112;16.280;2024-02-26T13:53:19;3.83;;;1.77;;
54787;SDS011;59598;48.112;16.280;2024-02-26T13:55:54;2.20;;;1.70;;
54787;SDS011;59598;48.112;16.280;2024-02-26T13:58:26;4.38;;;1.70;;
54787;SDS011;59598;48.112;16.280;2024-02-26T14:01:00;2.50;;;1.80;;
54787;SDS011;59598;48.112;16.280;2024-02-26T14:03:34;3.53;;;1.90;;
54787;SDS011;59598;48.112;16.280;2024-02-26T14:06:07;3.47;;;1.70;;
54787;SDS011;59598;48.112;16.280;2024-02-26T14:08:41;3.60;;;1.98;;
54787;SDS011;59598;48.112;16.280;2024-02-26T14:11:12;4.05;;;1.60;;
54787;SDS011;59598;48.112;16.280;2024-02-26T14:13:44;2.80;;;1.55;;
54787;SDS011;59598;48.112;16.280;2024-02-26T14:16:17;1.75;;;1.52;;
54787;SDS011;59598;48.112;16.280;2024-02-26T14:18:50;4.18;;;1.83;;
54787;SDS011;59598;48.112;16.280;2024-02-26T14:21:21;2.65;;;2.13;;
54787;SDS011;59598;48.112;16.280;2024-02-26T14:23:55;2.10;;;1.90;;
54787;SDS011;59598;48.112;16.280;2024-02-26T14:26:27;2.55;;;2.08;;
54787;SDS011;59598;48.112;16.280;2024-02-26T14:28:59;4.43;;;2.10;;
54787;SDS011;59598;48.112;16.280;2024-02-26T14:31:30;3.90;;;2.03;;
54787;SDS011;59598;48.112;16.280;2024-02-26T14:34:04;1.92;;;1.67;;
54787;SDS011;59598;48.112;16.280;2024-02-26T14:36:37;4.72;;;2.17;;
54787;SDS011;59598;48.112;16.280;2024-02-26T14:39:12;2.15;;;1.85;;
54787;SDS011;59598;48.112;16.280;2024-02-26T14:41:47;4.60;;;1.77;;
54787;SDS011;59598;48.112;16.280;2024-02-26T14:44:18;4.93;;;2.03;;
54787;SDS011;59598;48.112;16.280;2024-02-26T14:46:50;1.92;;;1.58;;
54787;SDS011;59598;48.112;16.280;2024-02-26T14:49:24;2.43;;;1.83;;
54787;SDS011;59598;48.112;16.280;2024-02-26T14:51:55;2.97;;;1.60;;
54787;SDS011;59598;48.112;16.280;2024-02-26T14:54:31;3.57;;;1.97;;
54787;SDS011;59598;48.112;16.280;2024-02-26T14:57:07;3.88;;;1.30;;
54787;SDS011;59598;48.112;16.280;2024-02-26T14:59:41;4.05;;;1.65;;
54787;SDS011;59598;48.112;16.280;2024-02-26T15:02:12;1.65;;;1.55;;
54787;SDS011;59598;48.112;16.280;2024-02-26T15:04:48;1.83;;;1.52;;
54787;SDS011;59598;48.112;16.280;2024-02-26T15:07:22;2.88;;;2.00;;
54787;SDS011;59598;48.112;16.280;2024-02-26T15:09:56;4.85;;;2.22;;
54787;SDS011;59598;48.112;16.280;2024-02-26T15:12:29;5.25;;;2.20;;
54787;SDS011;59598;48.112;16.280;2024-02-26T15:15:04;3.63;;;2.80;;
54787;SDS011;59598;48.112;16.280;2024-02-26T15:17:36;5.20;;;2.35;;
54787;SDS011;59598;48.112;16.280;2024-02-26T15:20:10;7.00;;;2.65;;
54787;SDS011;59598;48.112;16.280;2024-02-26T15:22:42;3.70;;;2.13;;
54787;SDS011;59598;48.112;16.280;2024-02-26T15:25:13;4.28;;;2.10;;
54787;SDS011;59598;48.112;16.280;2024-02-26T15:27:47;2.65;;;2.10;;
54787;SDS011;59598;48.112;16.280;2024-02-26T15:30:23;4.28;;;1.75;;